Time;durP1;ratioP1;P1;durP2;ratioP2;P2;SDS_P1;SDS_P2;PMS_P1;PMS_P2;Temp;Humidity;BMP_temperature;BMP_pressure;BME280_temperature;BME280_humidity;BME280_pressure;Samples;Min_cycle;Max_cycle;Signal;HPM_P1;HPM_P2
2019/06/10 00:00:11;;;;;;;7.45;5.699998;;;;;;;14.47;71.48047;95228.74;;;;
2019/06/10 00:01:12;;;;;;;7.45;5.699998;;;;;;;14.47;71.48047;95228.74;;;;
2019/06/10 00:02:13;;;;;;;7.45;5.699998;;;;;;;14.47;71.48047;95228.74;;;;
2019/06/10 00:03:14;;;;;;;7.45;5.699998;;;;;;;14.47;71.48047;95228.74;;;;
2019/06/10 00:04:15;;;;;;;7.45;5.699998;;;;;;;14.47;71.48047;95228.74;;;;
2019/06/10 00:05:16;;;;;;;7.45;5.699998;;;;;;;14.47;71.48047;95228.74;;;;
2019/06/10 00:06:17;;;;;;;7.45;5.699998;;;;;;;14.47;71.48047;95228.74;;;;
2019/06/10 00:07:18;;;;;;;7.45;5.699998;;;;;;;14.47;71.48047;95228.74;;;;
2019/06/10 00:08:19;;;;;;;6.250001;5.65;;;;;;;14.36;73.38574;95218.33;;;;
2019/06/10 00:09:20;;;;;;;6.250001;5.65;;;;;;;14.36;73.38574;95218.33;;;;
2019/06/10 00:10:21;;;;;;;6.250001;5.65;;;;;;;14.36;73.38574;95218.33;;;;
2019/06/10 00:11:22;;;;;;;6.250001;5.65;;;;;;;14.36;73.38574;95218.33;;;;
2019/06/10 00:12:23;;;;;;;6.250001;5.65;;;;;;;14.36;73.38574;95218.33;;;;
2019/06/10 00:13:24;;;;;;;6.250001;5.65;;;;;;;14.36;73.38574;95218.33;;;;
2019/06/10 00:14:26;;;;;;;6.250001;5.65;;;;;;;14.36;73.38574;95218.33;;;;
2019/06/10 00:15:27;;;;;;;6.250001;5.65;;;;;;;14.36;73.38574;95218.33;;;;
2019/06/10 00:16:28;;;;;;;6.250001;5.65;;;;;;;14.36;73.38574;95218.33;;;;
2019/06/10 00:17:29;;;;;;;6.250001;5.65;;;;;;;14.36;73.38574;95218.33;;;;
2019/06/10 00:18:30;;;;;;;6.55;5.15;;;;;;;14.44;74.28418;95215.68;;;;
2019/06/10 00:19:31;;;;;;;6.55;5.15;;;;;;;14.44;74.28418;95215.68;;;;
2019/06/10 00:20:32;;;;;;;6.55;5.15;;;;;;;14.44;74.28418;95215.68;;;;
2019/06/10 00:21:33;;;;;;;6.55;5.15;;;;;;;14.44;74.28418;95215.68;;;;
2019/06/10 00:22:34;;;;;;;6.55;5.15;;;;;;;14.44;74.28418;95215.68;;;;
2019/06/10 00:23:35;;;;;;;6.55;5.15;;;;;;;14.44;74.28418;95215.68;;;;
2019/06/10 00:24:36;;;;;;;6.55;5.15;;;;;;;14.44;74.28418;95215.68;;;;
2019/06/10 00:25:38;;;;;;;6.55;5.15;;;;;;;14.44;74.28418;95215.68;;;;
2019/06/10 00:26:39;;;;;;;6.55;5.15;;;;;;;14.44;74.28418;95215.68;;;;
2019/06/10 00:27:40;;;;;;;6.55;5.15;;;;;;;14.44;74.28418;95215.68;;;;
2019/06/10 00:28:41;;;;;;;6.55;5.15;;;;;;;14.44;74.28418;95215.68;;;;
2019/06/10 00:29:42;;;;;;;6.55;5.15;;;;;;;14.44;74.28418;95215.68;;;;
2019/06/10 00:30:43;;;;;;;6.55;5.15;;;;;;;14.44;74.28418;95215.68;;;;
2019/06/10 00:31:44;;;;;;;6.55;5.15;;;;;;;14.44;74.28418;95215.68;;;;
2019/06/10 00:32:45;;;;;;;6.55;5.15;;;;;;;14.44;74.28418;95215.68;;;;
2019/06/10 00:33:46;;;;;;;6.55;5.15;;;;;;;14.44;74.28418;95215.68;;;;
2019/06/10 00:34:47;;;;;;;6.55;5.15;;;;;;;14.44;74.28418;95215.68;;;;
2019/06/10 00:35:48;;;;;;;6.55;5.15;;;;;;;14.44;74.28418;95215.68;;;;
2019/06/10 00:36:49;;;;;;;6.55;5.15;;;;;;;14.44;74.28418;95215.68;;;;
2019/06/10 00:37:50;;;;;;;6.55;5.15;;;;;;;14.44;74.28418;95215.68;;;;
2019/06/10 00:38:51;;;;;;;6.55;5.15;;;;;;;14.44;74.28418;95215.68;;;;
2019/06/10 00:39:52;;;;;;;6.55;5.15;;;;;;;14.44;74.28418;95215.68;;;;
2019/06/10 00:40:53;;;;;;;6.55;5.15;;;;;;;14.44;74.28418;95215.68;;;;
2019/06/10 00:41:54;;;;;;;6.55;5.15;;;;;;;14.44;74.28418;95215.68;;;;
2019/06/10 00:42:56;;;;;;;6.55;5.15;;;;;;;14.44;74.28418;95215.68;;;;
2019/06/10 00:43:57;;;;;;;6.55;5.15;;;;;;;14.44;74.28418;95215.68;;;;
2019/06/10 00:44:58;;;;;;;6.55;5.15;;;;;;;14.44;74.28418;95215.68;;;;
2019/06/10 00:45:59;;;;;;;6.55;5.15;;;;;;;14.44;74.28418;95215.68;;;;
2019/06/10 00:47:00;;;;;;;6.55;5.15;;;;;;;14.44;74.28418;95215.68;;;;
2019/06/10 00:48:01;;;;;;;6.55;5.15;;;;;;;14.44;74.28418;95215.68;;;;
2019/06/10 00:49:02;;;;;;;6.55;5.15;;;;;;;14.44;74.28418;95215.68;;;;
2019/06/10 00:50:03;;;;;;;6.55;5.15;;;;;;;14.44;74.28418;95215.68;;;;
2019/06/10 00:51:04;;;;;;;6.55;5.15;;;;;;;14.44;74.28418;95215.68;;;;
2019/06/10 00:52:05;;;;;;;6.55;5.15;;;;;;;14.44;74.28418;95215.68;;;;
2019/06/10 00:53:06;;;;;;;6.55;5.15;;;;;;;14.44;74.28418;95215.68;;;;
2019/06/10 00:54:07;;;;;;;6.55;5.15;;;;;;;14.44;74.28418;95215.68;;;;
2019/06/10 00:55:08;;;;;;;6.55;5.15;;;;;;;14.44;74.28418;95215.68;;;;
2019/06/10 00:56:09;;;;;;;6.55;5.15;;;;;;;14.44;74.28418;95215.68;;;;
2019/06/10 00:57:10;;;;;;;6.55;5.15;;;;;;;14.44;74.28418;95215.68;;;;
2019/06/10 00:58:12;;;;;;;6.55;5.15;;;;;;;14.44;74.28418;95215.68;;;;
2019/06/10 00:59:13;;;;;;;6.55;5.15;;;;;;;14.44;74.28418;95215.68;;;;
2019/06/10 01:00:14;;;;;;;6.55;5.15;;;;;;;14.44;74.28418;95215.68;;;;
2019/06/10 01:01:15;;;;;;;6.55;5.15;;;;;;;14.44;74.28418;95215.68;;;;
2019/06/10 01:02:16;;;;;;;6.55;5.15;;;;;;;14.44;74.28418;95215.68;;;;
2019/06/10 02:04:21;;;;;;;6.6;5.550001;;;;;;;14.86;78.46973;95095.9;;;;
2019/06/10 02:05:22;;;;;;;6.6;5.550001;;;;;;;14.86;78.46973;95095.9;;;;
2019/06/10 02:06:24;;;;;;;6.6;5.550001;;;;;;;14.86;78.46973;95095.9;;;;
2019/06/10 02:07:25;;;;;;;6.6;5.550001;;;;;;;14.86;78.46973;95095.9;;;;
2019/06/10 02:08:26;;;;;;;6.6;5.550001;;;;;;;14.86;78.46973;95095.9;;;;
2019/06/10 02:09:27;;;;;;;6.6;5.550001;;;;;;;14.86;78.46973;95095.9;;;;
2019/06/10 02:10:28;;;;;;;6.6;5.550001;;;;;;;14.86;78.46973;95095.9;;;;
2019/06/10 02:11:29;;;;;;;6.6;5.550001;;;;;;;14.86;78.46973;95095.9;;;;
2019/06/10 02:12:31;;;;;;;6.6;5.550001;;;;;;;14.86;78.46973;95095.9;;;;
2019/06/10 02:13:32;;;;;;;6.6;5.550001;;;;;;;14.86;78.46973;95095.9;;;;
2019/06/10 02:14:33;;;;;;;6.6;5.550001;;;;;;;14.86;78.46973;95095.9;;;;
2019/06/10 02:15:34;;;;;;;7.25;5.55;;;;;;;14.94;78.71191;95109.41;;;;
2019/06/10 02:16:36;;;;;;;7.25;5.55;;;;;;;14.94;78.71191;95109.41;;;;
2019/06/10 02:17:37;;;;;;;7.25;5.55;;;;;;;14.94;78.71191;95109.41;;;;
2019/06/10 02:18:38;;;;;;;7.25;5.55;;;;;;;14.94;78.71191;95109.41;;;;
2019/06/10 02:19:39;;;;;;;7.25;5.55;;;;;;;14.94;78.71191;95109.41;;;;
2019/06/10 02:20:40;;;;;;;7.25;5.55;;;;;;;14.94;78.71191;95109.41;;;;
2019/06/10 02:21:41;;;;;;;7.25;5.55;;;;;;;14.94;78.71191;95109.41;;;;
2019/06/10 02:22:42;;;;;;;7.25;5.55;;;;;;;14.94;78.71191;95109.41;;;;
2019/06/10 02:23:43;;;;;;;7.25;5.55;;;;;;;14.94;78.71191;95109.41;;;;
2019/06/10 02:24:44;;;;;;;7.25;5.55;;;;;;;14.94;78.71191;95109.41;;;;
2019/06/10 02:25:45;;;;;;;7.25;5.55;;;;;;;14.94;78.71191;95109.41;;;;
2019/06/10 02:26:47;;;;;;;7.25;5.55;;;;;;;14.94;78.71191;95109.41;;;;
2019/06/10 02:27:48;;;;;;;7.25;5.55;;;;;;;14.94;78.71191;95109.41;;;;
2019/06/10 02:28:49;;;;;;;7.25;5.55;;;;;;;14.94;78.71191;95109.41;;;;
2019/06/10 02:29:50;;;;;;;7.25;5.55;;;;;;;14.94;78.71191;95109.41;;;;
2019/06/10 02:30:51;;;;;;;7.25;5.55;;;;;;;14.94;78.71191;95109.41;;;;
2019/06/10 02:31:52;;;;;;;7.25;5.55;;;;;;;14.94;78.71191;95109.41;;;;
2019/06/10 02:32:53;;;;;;;7.25;5.55;;;;;;;14.94;78.71191;95109.41;;;;
2019/06/10 02:33:55;;;;;;;7.25;5.55;;;;;;;14.94;78.71191;95109.41;;;;
2019/06/10 02:34:56;;;;;;;7.25;5.55;;;;;;;14.94;78.71191;95109.41;;;;
2019/06/10 02:35:57;;;;;;;7.25;5.55;;;;;;;14.94;78.71191;95109.41;;;;
2019/06/10 02:36:58;;;;;;;7.25;5.55;;;;;;;14.94;78.71191;95109.41;;;;
2019/06/10 02:37:59;;;;;;;7.25;5.55;;;;;;;14.94;78.71191;95109.41;;;;
2019/06/10 02:39:01;;;;;;;7.25;5.55;;;;;;;14.94;78.71191;95109.41;;;;
2019/06/10 02:40:04;;;;;;;7.25;5.55;;;;;;;14.94;78.71191;95109.41;;;;
2019/06/10 02:41:06;;;;;;;7.25;5.55;;;;;;;14.94;78.71191;95109.41;;;;
2019/06/10 02:42:14;;;;;;;7.25;5.55;;;;;;;14.94;78.71191;95109.41;;;;
2019/06/10 02:43:17;;;;;;;7.25;5.55;;;;;;;14.94;78.71191;95109.41;;;;
2019/06/10 02:44:20;;;;;;;7.25;5.55;;;;;;;14.94;78.71191;95109.41;;;;
2019/06/10 02:45:21;;;;;;;7.25;5.55;;;;;;;14.94;78.71191;95109.41;;;;
2019/06/10 02:46:22;;;;;;;7.25;5.55;;;;;;;14.94;78.71191;95109.41;;;;
2019/06/10 02:47:23;;;;;;;7.250001;5.9;;;;;;;15.28;80.25195;95206.34;;;;
2019/06/10 02:48:24;;;;;;;7.250001;5.9;;;;;;;15.28;80.25195;95206.34;;;;
2019/06/10 02:49:25;;;;;;;7.250001;5.9;;;;;;;15.28;80.25195;95206.34;;;;
2019/06/10 02:50:26;;;;;;;7.250001;5.9;;;;;;;15.28;80.25195;95206.34;;;;
2019/06/10 02:52:30;;;;;;;7.250001;5.9;;;;;;;15.28;80.25195;95206.34;;;;
2019/06/10 02:53:31;;;;;;;7.250001;5.9;;;;;;;15.28;80.25195;95206.34;;;;
2019/06/10 02:54:33;;;;;;;7.250001;5.9;;;;;;;15.28;80.25195;95206.34;;;;
2019/06/10 02:55:34;;;;;;;7.250001;5.9;;;;;;;15.28;80.25195;95206.34;;;;
2019/06/10 02:56:35;;;;;;;7.250001;5.9;;;;;;;15.28;80.25195;95206.34;;;;
2019/06/10 02:57:36;;;;;;;7;6.3;;;;;;;15.13;80.49414;95237.02;;;;
2019/06/10 02:58:37;;;;;;;7;6.3;;;;;;;15.13;80.49414;95237.02;;;;
2019/06/10 02:59:38;;;;;;;7;6.3;;;;;;;15.13;80.49414;95237.02;;;;
2019/06/10 03:00:39;;;;;;;7;6.3;;;;;;;15.13;80.49414;95237.02;;;;
2019/06/10 03:01:40;;;;;;;7;6.3;;;;;;;15.13;80.49414;95237.02;;;;
2019/06/10 03:02:41;;;;;;;7;6.3;;;;;;;15.13;80.49414;95237.02;;;;
2019/06/10 03:03:42;;;;;;;7;6.3;;;;;;;15.13;80.49414;95237.02;;;;
2019/06/10 03:04:43;;;;;;;7;6.3;;;;;;;15.13;80.49414;95237.02;;;;
2019/06/10 03:05:44;;;;;;;7;6.3;;;;;;;15.13;80.49414;95237.02;;;;
2019/06/10 03:06:45;;;;;;;7;6.3;;;;;;;15.13;80.49414;95237.02;;;;
2019/06/10 03:07:47;;;;;;;7;6.3;;;;;;;15.13;80.49414;95237.02;;;;
2019/06/10 03:08:48;;;;;;;8.65;6.249999;;;;;;;15.1;81.2666;95269.78;;;;
2019/06/10 03:09:49;;;;;;;8.65;6.249999;;;;;;;15.1;81.2666;95269.78;;;;
2019/06/10 03:10:50;;;;;;;8.65;6.249999;;;;;;;15.1;81.2666;95269.78;;;;
2019/06/10 03:11:51;;;;;;;8.65;6.249999;;;;;;;15.1;81.2666;95269.78;;;;
2019/06/10 03:12:52;;;;;;;8.65;6.249999;;;;;;;15.1;81.2666;95269.78;;;;
2019/06/10 03:13:53;;;;;;;8.65;6.249999;;;;;;;15.1;81.2666;95269.78;;;;
2019/06/10 03:14:54;;;;;;;8.65;6.249999;;;;;;;15.1;81.2666;95269.78;;;;
2019/06/10 03:16:29;;;;;;;8.65;6.249999;;;;;;;15.1;81.2666;95269.78;;;;
2019/06/10 03:17:31;;;;;;;8.65;6.249999;;;;;;;15.1;81.2666;95269.78;;;;
2019/06/10 03:18:32;;;;;;;8.65;6.249999;;;;;;;15.1;81.2666;95269.78;;;;
2019/06/10 03:19:33;;;;;;;8.65;6.249999;;;;;;;15.1;81.2666;95269.78;;;;
2019/06/10 03:20:34;;;;;;;8.65;6.249999;;;;;;;15.1;81.2666;95269.78;;;;
2019/06/10 03:21:35;;;;;;;8.65;6.249999;;;;;;;15.1;81.2666;95269.78;;;;
2019/06/10 03:22:36;;;;;;;8.65;6.249999;;;;;;;15.1;81.2666;95269.78;;;;
2019/06/10 03:23:37;;;;;;;8.65;6.249999;;;;;;;15.1;81.2666;95269.78;;;;
2019/06/10 03:24:38;;;;;;;8.65;6.249999;;;;;;;15.1;81.2666;95269.78;;;;
2019/06/10 03:25:40;;;;;;;8.65;6.249999;;;;;;;15.1;81.2666;95269.78;;;;
2019/06/10 03:26:41;;;;;;;8.65;6.249999;;;;;;;15.1;81.2666;95269.78;;;;
2019/06/10 03:27:42;;;;;;;8.65;6.249999;;;;;;;15.1;81.2666;95269.78;;;;
2019/06/10 03:28:43;;;;;;;8.65;6.249999;;;;;;;15.1;81.2666;95269.78;;;;
2019/06/10 03:29:44;;;;;;;10.85;7.699999;;;;;;;15.03;83.17383;95092.86;;;;
2019/06/10 03:30:45;;;;;;;10.85;7.699999;;;;;;;15.03;83.17383;95092.86;;;;
2019/06/10 03:31:46;;;;;;;10.85;7.699999;;;;;;;15.03;83.17383;95092.86;;;;
2019/06/10 03:32:47;;;;;;;10.85;7.699999;;;;;;;15.03;83.17383;95092.86;;;;
2019/06/10 03:33:48;;;;;;;10.85;7.699999;;;;;;;15.03;83.17383;95092.86;;;;
2019/06/10 03:34:49;;;;;;;10.85;7.699999;;;;;;;15.03;83.17383;95092.86;;;;
2019/06/10 03:35:50;;;;;;;10.85;7.699999;;;;;;;15.03;83.17383;95092.86;;;;
2019/06/10 03:36:51;;;;;;;10.85;7.699999;;;;;;;15.03;83.17383;95092.86;;;;
2019/06/10 03:37:53;;;;;;;10.85;7.699999;;;;;;;15.03;83.17383;95092.86;;;;
2019/06/10 03:38:54;;;;;;;10.85;7.699999;;;;;;;15.03;83.17383;95092.86;;;;
2019/06/10 03:39:55;;;;;;;10.05;8.150002;;;;;;;14.96;83.86914;95044.84;;;;
2019/06/10 03:40:56;;;;;;;10.05;8.150002;;;;;;;14.96;83.86914;95044.84;;;;
2019/06/10 03:41:57;;;;;;;10.05;8.150002;;;;;;;14.96;83.86914;95044.84;;;;
2019/06/10 03:42:58;;;;;;;10.05;8.150002;;;;;;;14.96;83.86914;95044.84;;;;
2019/06/10 03:43:59;;;;;;;10.05;8.150002;;;;;;;14.96;83.86914;95044.84;;;;
2019/06/10 03:45:00;;;;;;;10.05;8.150002;;;;;;;14.96;83.86914;95044.84;;;;
2019/06/10 03:46:01;;;;;;;10.05;8.150002;;;;;;;14.96;83.86914;95044.84;;;;
2019/06/10 03:47:02;;;;;;;10.05;8.150002;;;;;;;14.96;83.86914;95044.84;;;;
2019/06/10 03:48:03;;;;;;;10.05;8.150002;;;;;;;14.96;83.86914;95044.84;;;;
2019/06/10 03:49:04;;;;;;;10.05;8.150002;;;;;;;14.96;83.86914;95044.84;;;;
2019/06/10 03:50:05;;;;;;;10.05;8.150002;;;;;;;14.96;83.86914;95044.84;;;;
2019/06/10 03:51:06;;;;;;;10.35;8.200001;;;;;;;15;85.29004;95010.06;;;;
2019/06/10 03:52:07;;;;;;;10.35;8.200001;;;;;;;15;85.29004;95010.06;;;;
2019/06/10 03:53:08;;;;;;;10.35;8.200001;;;;;;;15;85.29004;95010.06;;;;
2019/06/10 03:54:10;;;;;;;10.35;8.200001;;;;;;;15;85.29004;95010.06;;;;
2019/06/10 03:55:11;;;;;;;10.35;8.200001;;;;;;;15;85.29004;95010.06;;;;
2019/06/10 03:56:12;;;;;;;10.35;8.200001;;;;;;;15;85.29004;95010.06;;;;
2019/06/10 03:57:13;;;;;;;10.35;8.200001;;;;;;;15;85.29004;95010.06;;;;
2019/06/10 03:58:14;;;;;;;10.35;8.200001;;;;;;;15;85.29004;95010.06;;;;
2019/06/10 03:59:15;;;;;;;10.35;8.200001;;;;;;;15;85.29004;95010.06;;;;
2019/06/10 04:00:16;;;;;;;10.35;8.200001;;;;;;;15;85.29004;95010.06;;;;
2019/06/10 04:01:17;;;;;;;10.35;8.200001;;;;;;;15;85.29004;95010.06;;;;
2019/06/10 04:02:18;;;;;;;10.35;8.200001;;;;;;;15;85.29004;95010.06;;;;
2019/06/10 04:03:19;;;;;;;10.35;8.200001;;;;;;;15;85.29004;95010.06;;;;
2019/06/10 04:04:21;;;;;;;10.35;8.200001;;;;;;;15;85.29004;95010.06;;;;
2019/06/10 04:05:22;;;;;;;10.35;8.200001;;;;;;;15;85.29004;95010.06;;;;
2019/06/10 04:06:23;;;;;;;10.35;8.200001;;;;;;;15;85.29004;95010.06;;;;
2019/06/10 04:07:24;;;;;;;10.35;8.200001;;;;;;;15;85.29004;95010.06;;;;
2019/06/10 04:08:25;;;;;;;10.35;8.200001;;;;;;;15;85.29004;95010.06;;;;
2019/06/10 04:09:26;;;;;;;10.35;8.200001;;;;;;;15;85.29004;95010.06;;;;
2019/06/10 04:10:27;;;;;;;10.35;8.200001;;;;;;;15;85.29004;95010.06;;;;
2019/06/10 04:11:28;;;;;;;10.35;8.200001;;;;;;;15;85.29004;95010.06;;;;
2019/06/10 04:12:29;;;;;;;10.35;8.200001;;;;;;;15;85.29004;95010.06;;;;
2019/06/10 04:13:30;;;;;;;10.35;8.200001;;;;;;;15;85.29004;95010.06;;;;
2019/06/10 04:14:31;;;;;;;10.35;8.200001;;;;;;;15;85.29004;95010.06;;;;
2019/06/10 04:15:32;;;;;;;10.35;8.200001;;;;;;;15;85.29004;95010.06;;;;
2019/06/10 04:16:33;;;;;;;10.35;8.200001;;;;;;;15;85.29004;95010.06;;;;
2019/06/10 04:17:34;;;;;;;10.35;8.200001;;;;;;;15;85.29004;95010.06;;;;
2019/06/10 04:18:36;;;;;;;10.35;8.200001;;;;;;;15;85.29004;95010.06;;;;
2019/06/10 04:19:37;;;;;;;10.35;8.200001;;;;;;;15;85.29004;95010.06;;;;
2019/06/10 04:20:38;;;;;;;10.35;8.200001;;;;;;;15;85.29004;95010.06;;;;
2019/06/10 04:21:39;;;;;;;10.35;8.200001;;;;;;;15;85.29004;95010.06;;;;
2019/06/10 04:22:40;;;;;;;10.35;8.200001;;;;;;;15;85.29004;95010.06;;;;
2019/06/10 04:23:41;;;;;;;10.35;8.200001;;;;;;;15;85.29004;95010.06;;;;
2019/06/10 04:24:42;;;;;;;10.35;8.200001;;;;;;;15;85.29004;95010.06;;;;
2019/06/10 04:25:43;;;;;;;10.35;8.200001;;;;;;;15;85.29004;95010.06;;;;
2019/06/10 04:26:44;;;;;;;10.35;8.200001;;;;;;;15;85.29004;95010.06;;;;
2019/06/10 04:27:45;;;;;;;10.35;8.200001;;;;;;;15;85.29004;95010.06;;;;
2019/06/10 04:28:46;;;;;;;10.35;8.200001;;;;;;;15;85.29004;95010.06;;;;
2019/06/10 04:29:47;;;;;;;10.35;8.200001;;;;;;;15;85.29004;95010.06;;;;
2019/06/10 04:30:48;;;;;;;10.35;8.200001;;;;;;;15;85.29004;95010.06;;;;
2019/06/10 04:31:50;;;;;;;10.35;8.200001;;;;;;;15;85.29004;95010.06;;;;
2019/06/10 04:32:51;;;;;;;10.35;8.200001;;;;;;;15;85.29004;95010.06;;;;
2019/06/10 04:33:52;;;;;;;10.35;8.200001;;;;;;;15;85.29004;95010.06;;;;
2019/06/10 04:34:53;;;;;;;10.35;8.200001;;;;;;;15;85.29004;95010.06;;;;
2019/06/10 04:53:55;;;;;;;10.35;9.15;;;;;;;15.64;88.38867;95073.91;;;;
2019/06/10 04:54:56;;;;;;;10.35;9.15;;;;;;;15.64;88.38867;95073.91;;;;
2019/06/10 04:55:57;;;;;;;10.35;9.15;;;;;;;15.64;88.38867;95073.91;;;;
2019/06/10 04:56:58;;;;;;;10.35;9.15;;;;;;;15.64;88.38867;95073.91;;;;
2019/06/10 04:57:59;;;;;;;10.35;9.15;;;;;;;15.64;88.38867;95073.91;;;;
2019/06/10 04:59:00;;;;;;;10.35;9.15;;;;;;;15.64;88.38867;95073.91;;;;
2019/06/10 05:00:01;;;;;;;10.35;9.15;;;;;;;15.64;88.38867;95073.91;;;;
2019/06/10 05:01:03;;;;;;;10.35;9.15;;;;;;;15.64;88.38867;95073.91;;;;
2019/06/10 05:02:04;;;;;;;10.35;9.15;;;;;;;15.64;88.38867;95073.91;;;;
2019/06/10 05:03:05;;;;;;;10.35;9.15;;;;;;;15.64;88.38867;95073.91;;;;
2019/06/10 05:04:06;;;;;;;10.35;9.15;;;;;;;15.64;88.38867;95073.91;;;;
2019/06/10 05:05:07;;;;;;;10.35;9.15;;;;;;;15.64;88.38867;95073.91;;;;
2019/06/10 05:06:09;;;;;;;10.35;9.15;;;;;;;15.64;88.38867;95073.91;;;;
2019/06/10 05:07:10;;;;;;;10.35;9.15;;;;;;;15.64;88.38867;95073.91;;;;
2019/06/10 05:08:11;;;;;;;10.35;9.15;;;;;;;15.64;88.38867;95073.91;;;;
2019/06/10 05:09:12;;;;;;;10.35;9.15;;;;;;;15.64;88.38867;95073.91;;;;
2019/06/10 05:10:13;;;;;;;10.35;9.15;;;;;;;15.64;88.38867;95073.91;;;;
2019/06/10 05:11:14;;;;;;;10.35;9.15;;;;;;;15.64;88.38867;95073.91;;;;
2019/06/10 05:12:15;;;;;;;10.35;9.15;;;;;;;15.64;88.38867;95073.91;;;;
2019/06/10 05:13:16;;;;;;;10.35;9.15;;;;;;;15.64;88.38867;95073.91;;;;
2019/06/10 05:14:17;;;;;;;10.35;9.15;;;;;;;15.64;88.38867;95073.91;;;;
2019/06/10 05:15:18;;;;;;;10.05;8.6;;;;;;;16.35;87.72168;95081.87;;;;
2019/06/10 05:16:19;;;;;;;10.05;8.6;;;;;;;16.35;87.72168;95081.87;;;;
2019/06/10 05:17:20;;;;;;;10.05;8.6;;;;;;;16.35;87.72168;95081.87;;;;
2019/06/10 05:18:21;;;;;;;10.05;8.6;;;;;;;16.35;87.72168;95081.87;;;;
2019/06/10 05:19:22;;;;;;;10.05;8.6;;;;;;;16.35;87.72168;95081.87;;;;
2019/06/10 05:20:23;;;;;;;10.05;8.6;;;;;;;16.35;87.72168;95081.87;;;;
2019/06/10 05:21:24;;;;;;;10.05;8.6;;;;;;;16.35;87.72168;95081.87;;;;
2019/06/10 05:22:25;;;;;;;10.05;8.6;;;;;;;16.35;87.72168;95081.87;;;;
2019/06/10 05:23:26;;;;;;;10.05;8.6;;;;;;;16.35;87.72168;95081.87;;;;
2019/06/10 05:24:27;;;;;;;10.05;8.6;;;;;;;16.35;87.72168;95081.87;;;;
2019/06/10 05:25:29;;;;;;;10.05;8.6;;;;;;;16.35;87.72168;95081.87;;;;
2019/06/10 05:26:30;;;;;;;10.05;8.6;;;;;;;16.35;87.72168;95081.87;;;;
2019/06/10 05:27:31;;;;;;;10.05;8.6;;;;;;;16.35;87.72168;95081.87;;;;
2019/06/10 05:28:32;;;;;;;10.05;8.6;;;;;;;16.35;87.72168;95081.87;;;;
2019/06/10 05:29:33;;;;;;;10.05;8.6;;;;;;;16.35;87.72168;95081.87;;;;
2019/06/10 05:30:34;;;;;;;10.05;8.6;;;;;;;16.35;87.72168;95081.87;;;;
2019/06/10 05:31:35;;;;;;;10.05;8.6;;;;;;;16.35;87.72168;95081.87;;;;
2019/06/10 05:32:36;;;;;;;10.05;8.6;;;;;;;16.35;87.72168;95081.87;;;;
2019/06/10 05:33:37;;;;;;;10.05;8.6;;;;;;;16.35;87.72168;95081.87;;;;
2019/06/10 05:34:38;;;;;;;10.05;8.6;;;;;;;16.35;87.72168;95081.87;;;;
2019/06/10 05:35:39;;;;;;;10.05;8.6;;;;;;;16.35;87.72168;95081.87;;;;
2019/06/10 05:36:40;;;;;;;11.1;8.549999;;;;;;;16.61;88.07422;95063;;;;
2019/06/10 05:37:41;;;;;;;11.1;8.549999;;;;;;;16.61;88.07422;95063;;;;
2019/06/10 05:38:42;;;;;;;11.1;8.549999;;;;;;;16.61;88.07422;95063;;;;
2019/06/10 05:39:43;;;;;;;11.1;8.549999;;;;;;;16.61;88.07422;95063;;;;
2019/06/10 05:40:44;;;;;;;11.1;8.549999;;;;;;;16.61;88.07422;95063;;;;
2019/06/10 05:41:46;;;;;;;11.1;8.549999;;;;;;;16.61;88.07422;95063;;;;
2019/06/10 05:42:47;;;;;;;11.1;8.549999;;;;;;;16.61;88.07422;95063;;;;
2019/06/10 05:43:48;;;;;;;11.1;8.549999;;;;;;;16.61;88.07422;95063;;;;
2019/06/10 05:44:49;;;;;;;11.1;8.549999;;;;;;;16.61;88.07422;95063;;;;
2019/06/10 05:45:50;;;;;;;11.1;8.549999;;;;;;;16.61;88.07422;95063;;;;
2019/06/10 05:46:51;;;;;;;11.1;8.549999;;;;;;;16.61;88.07422;95063;;;;
2019/06/10 05:47:52;;;;;;;11.1;8.549999;;;;;;;16.61;88.07422;95063;;;;
2019/06/10 05:48:53;;;;;;;11.1;8.549999;;;;;;;16.61;88.07422;95063;;;;
2019/06/10 05:49:54;;;;;;;11.1;8.549999;;;;;;;16.61;88.07422;95063;;;;
2019/06/10 05:50:55;;;;;;;11.1;8.549999;;;;;;;16.61;88.07422;95063;;;;
2019/06/10 05:51:56;;;;;;;11.1;8.549999;;;;;;;16.61;88.07422;95063;;;;
2019/06/10 05:52:57;;;;;;;11.1;8.549999;;;;;;;16.61;88.07422;95063;;;;
2019/06/10 05:53:59;;;;;;;11.1;8.549999;;;;;;;16.61;88.07422;95063;;;;
2019/06/10 05:55:00;;;;;;;11.1;8.549999;;;;;;;16.61;88.07422;95063;;;;
2019/06/10 05:56:01;;;;;;;11.1;8.549999;;;;;;;16.61;88.07422;95063;;;;
2019/06/10 05:57:02;;;;;;;11.1;8.549999;;;;;;;16.61;88.07422;95063;;;;
2019/06/10 05:58:03;;;;;;;11.1;8.549999;;;;;;;16.61;88.07422;95063;;;;
2019/06/10 05:59:04;;;;;;;11.1;8.549999;;;;;;;16.61;88.07422;95063;;;;
2019/06/10 06:00:05;;;;;;;11.1;8.549999;;;;;;;16.61;88.07422;95063;;;;
2019/06/10 06:01:06;;;;;;;11.1;8.549999;;;;;;;16.61;88.07422;95063;;;;
2019/06/10 06:02:07;;;;;;;11.1;8.549999;;;;;;;16.61;88.07422;95063;;;;
2019/06/10 06:03:09;;;;;;;11.1;8.549999;;;;;;;16.61;88.07422;95063;;;;
2019/06/10 06:04:10;;;;;;;11.1;8.549999;;;;;;;16.61;88.07422;95063;;;;
2019/06/10 06:05:11;;;;;;;11.1;8.549999;;;;;;;16.61;88.07422;95063;;;;
2019/06/10 06:06:12;;;;;;;11.1;8.549999;;;;;;;16.61;88.07422;95063;;;;
2019/06/10 06:07:13;;;;;;;11.1;8.549999;;;;;;;16.61;88.07422;95063;;;;
2019/06/10 06:08:14;;;;;;;11.1;8.549999;;;;;;;16.61;88.07422;95063;;;;
2019/06/10 06:09:15;;;;;;;11.1;8.549999;;;;;;;16.61;88.07422;95063;;;;
2019/06/10 06:10:16;;;;;;;11.1;8.549999;;;;;;;16.61;88.07422;95063;;;;
2019/06/10 06:11:17;;;;;;;11.1;8.549999;;;;;;;16.61;88.07422;95063;;;;
2019/06/10 06:12:18;;;;;;;11.1;8.549999;;;;;;;16.61;88.07422;95063;;;;
2019/06/10 06:13:19;;;;;;;11.1;8.549999;;;;;;;16.61;88.07422;95063;;;;
2019/06/10 06:14:20;;;;;;;11.1;8.549999;;;;;;;16.61;88.07422;95063;;;;
2019/06/10 06:15:22;;;;;;;11.1;8.549999;;;;;;;16.61;88.07422;95063;;;;
2019/06/10 06:16:23;;;;;;;11.1;8.549999;;;;;;;16.61;88.07422;95063;;;;
2019/06/10 06:17:24;;;;;;;11.1;8.549999;;;;;;;16.61;88.07422;95063;;;;
2019/06/10 06:18:25;;;;;;;11.1;8.549999;;;;;;;16.61;88.07422;95063;;;;
2019/06/10 06:19:26;;;;;;;12.95;10.35;;;;;;;16.55;90.43848;95157.76;;;;
2019/06/10 06:20:27;;;;;;;12.95;10.35;;;;;;;16.55;90.43848;95157.76;;;;
2019/06/10 06:21:28;;;;;;;12.95;10.35;;;;;;;16.55;90.43848;95157.76;;;;
2019/06/10 06:22:29;;;;;;;12.95;10.35;;;;;;;16.55;90.43848;95157.76;;;;
2019/06/10 06:23:30;;;;;;;12.95;10.35;;;;;;;16.55;90.43848;95157.76;;;;
2019/06/10 06:24:31;;;;;;;12.95;10.35;;;;;;;16.55;90.43848;95157.76;;;;
2019/06/10 06:25:33;;;;;;;12.95;10.35;;;;;;;16.55;90.43848;95157.76;;;;
2019/06/10 06:26:34;;;;;;;12.95;10.35;;;;;;;16.55;90.43848;95157.76;;;;
2019/06/10 06:27:35;;;;;;;12.95;10.35;;;;;;;16.55;90.43848;95157.76;;;;
2019/06/10 06:28:36;;;;;;;12.95;10.35;;;;;;;16.55;90.43848;95157.76;;;;
2019/06/10 06:29:37;;;;;;;12.95;10.35;;;;;;;16.55;90.43848;95157.76;;;;
2019/06/10 06:30:38;;;;;;;12.95;10.35;;;;;;;16.55;90.43848;95157.76;;;;
2019/06/10 06:31:39;;;;;;;12.95;10.35;;;;;;;16.55;90.43848;95157.76;;;;
2019/06/10 06:32:40;;;;;;;12.95;10.35;;;;;;;16.55;90.43848;95157.76;;;;
2019/06/10 06:33:41;;;;;;;12.95;10.35;;;;;;;16.55;90.43848;95157.76;;;;
2019/06/10 06:34:43;;;;;;;12.95;10.35;;;;;;;16.55;90.43848;95157.76;;;;
2019/06/10 06:35:44;;;;;;;12.95;10.35;;;;;;;16.55;90.43848;95157.76;;;;
2019/06/10 06:36:45;;;;;;;12.95;10.35;;;;;;;16.55;90.43848;95157.76;;;;
2019/06/10 06:37:46;;;;;;;12.95;10.35;;;;;;;16.55;90.43848;95157.76;;;;
2019/06/10 06:38:47;;;;;;;12.95;10.35;;;;;;;16.55;90.43848;95157.76;;;;
2019/06/10 06:39:48;;;;;;;12.95;10.35;;;;;;;16.55;90.43848;95157.76;;;;
2019/06/10 06:40:49;;;;;;;12.95;10.35;;;;;;;16.55;90.43848;95157.76;;;;
2019/06/10 06:41:50;;;;;;;12.95;10.35;;;;;;;16.55;90.43848;95157.76;;;;
2019/06/10 06:42:51;;;;;;;12.95;10.35;;;;;;;16.55;90.43848;95157.76;;;;
2019/06/10 06:43:52;;;;;;;12.95;10.35;;;;;;;16.55;90.43848;95157.76;;;;
2019/06/10 06:44:54;;;;;;;12.95;10.35;;;;;;;16.55;90.43848;95157.76;;;;
2019/06/10 06:45:55;;;;;;;12.95;10.35;;;;;;;16.55;90.43848;95157.76;;;;
2019/06/10 06:46:56;;;;;;;12.95;10.35;;;;;;;16.55;90.43848;95157.76;;;;
2019/06/10 06:47:57;;;;;;;12.95;10.35;;;;;;;16.55;90.43848;95157.76;;;;
2019/06/10 06:48:58;;;;;;;12.95;10.35;;;;;;;16.55;90.43848;95157.76;;;;
2019/06/10 06:49:59;;;;;;;12.95;10.35;;;;;;;16.55;90.43848;95157.76;;;;
2019/06/10 06:51:00;;;;;;;12.95;10.35;;;;;;;16.55;90.43848;95157.76;;;;
2019/06/10 06:52:01;;;;;;;12.95;10.35;;;;;;;16.55;90.43848;95157.76;;;;
2019/06/10 06:53:02;;;;;;;12.95;10.35;;;;;;;16.55;90.43848;95157.76;;;;
2019/06/10 06:54:03;;;;;;;12.95;10.35;;;;;;;16.55;90.43848;95157.76;;;;
2019/06/10 06:55:04;;;;;;;12.95;10.35;;;;;;;16.55;90.43848;95157.76;;;;
2019/06/10 06:56:06;;;;;;;12.95;10.35;;;;;;;16.55;90.43848;95157.76;;;;
2019/06/10 06:57:07;;;;;;;12.95;10.35;;;;;;;16.55;90.43848;95157.76;;;;
2019/06/10 06:58:08;;;;;;;12.95;10.35;;;;;;;16.55;90.43848;95157.76;;;;
2019/06/10 06:59:09;;;;;;;12.95;10.35;;;;;;;16.55;90.43848;95157.76;;;;